Latest Weather Observations for Melbourne Airport

IDV60901

Issued at 8:01 am EDT Monday 15 February 2016 (issued every 10 minutes, with the page automatically refreshed every 10 minutes)

About weather observations | Map of Melbourne area stations | Latest observations for Melbourne area | Other Formats
Station Details ID: 086282 Name: MELBOURNE AIRPORT Lat: -37.67 Lon: 144.83 Height: 113.4 m
Data from the previous 72 hours. | See also: Recent months at Melbourne Airport
Date/Time
EDT
Tmp

°C
App
Tmp
°C
Dew
Point
°C
Rel
Hum
%
Delta-T

°C
Wind Press
QNH
hPa
Press
MSL
hPa
Rain
since
9 am
mm
Dir
 
Spd
km/h
Gust
km/h
Spd
kts
Gust
kts
15/07:30am 13.1 11.2 9.2 77 2.0 WNW 9 15 5 8 1013.4 1013.0 0.0
15/07:00am 12.0 10.0 8.8 81 1.6 WNW 9 13 5 7 1013.1 1012.7 0.0
15/06:30am 11.6 8.9 8.8 83 1.4 WNW 13 15 7 8 1013.2 1012.8 0.0
15/06:00am 11.9 9.6 9.1 83 1.4 WNW 11 13 6 7 1013.2 1012.8 0.0
15/05:30am 12.2 10.3 9.2 82 1.5 WNW 9 11 5 6 1013.4 1013.0 0.0
15/05:00am 12.2 10.4 9.4 83 1.4 NW 9 11 5 6 1013.2 1012.8 0.0
15/04:30am 12.1 9.9 9.3 83 1.4 W 11 13 6 7 1013.4 1013.0 0.0
15/04:00am 12.4 10.3 9.7 83 1.4 WNW 11 13 6 7 1013.4 1013.0 0.0
15/03:30am 12.8 10.4 9.9 82 1.5 WNW 13 15 7 8 1013.5 1013.1 0.0
15/03:00am 13.4 11.0 10.1 80 1.7 W 13 15 7 8 1013.7 1013.3 0.0
15/02:30am 13.7 11.7 10.0 78 1.9 WSW 11 15 6 8 1014.0 1013.6 0.0
15/02:00am 14.6 12.2 10.0 74 2.4 SW 13 17 7 9 1014.1 1013.7 0.0
15/01:30am 16.2 13.0 9.9 66 3.3 SSW 17 28 9 15 1014.4 1014.0 0.0
15/01:00am 16.4 15.1 12.6 78 2.1 S 11 11 6 6 1014.3 1013.9 0.0
15/12:30am 16.8 15.6 12.9 78 2.2 S 11 15 6 8 1014.4 1014.0 0.0
15/12:00am 16.9 15.2 12.4 75 2.5 S 13 15 7 8 1014.5 1014.1 0.0
 
Date/Time
EDT
Tmp

°C
App
Tmp
°C
Dew
Point
°C
Rel
Hum
%
Delta-T

°C
Wind Press
QNH
hPa
Press
MSL
hPa
Rain
since
9 am
mm
Dir
 
Spd
km/h
Gust
km/h
Spd
kts
Gust
kts
14/11:30pm 17.1 15.2 13.0 77 2.3 S 15 19 8 10 1014.8 1014.4 0.0
14/11:00pm 17.4 14.6 12.6 73 2.7 S 19 22 10 12 1014.8 1014.4 0.0
14/10:30pm 17.6 14.9 12.8 73 2.7 S 19 26 10 14 1014.8 1014.4 0.0
14/10:00pm 18.4 15.0 11.3 63 3.9 SSE 20 26 11 14 1014.4 1014.0 0.0
14/09:30pm 18.1 14.8 10.9 63 3.9 S 19 26 10 14 1014.0 1013.6 0.0
14/09:00pm 17.9 14.5 10.7 62 3.9 S 19 28 10 15 1013.5 1013.1 0.0
14/08:30pm 17.9 14.6 11.5 66 3.5 SSE 20 30 11 16 1013.1 1012.7 0.0
14/08:00pm 18.5 14.2 12.0 66 3.6 SSE 26 33 14 18 1012.7 1012.3 0.0
14/07:30pm 19.4 14.6 11.6 60 4.3 SSE 28 35 15 19 1012.3 1011.9 0.0
14/07:00pm 19.9 15.1 11.8 59 4.5 SSE 28 35 15 19 1011.9 1011.5 0.0
14/06:30pm 21.5 15.6 11.0 51 5.8 SSE 33 44 18 24 1011.6 1011.2 0.0
14/06:21pm 21.8 15.8 10.8 49 6.1 SSE 33 44 18 24 1011.5 1011.1 0.0
14/06:00pm 22.0 18.4 10.4 47 6.4 S 20 26 11 14 1011.2 1010.8 0.0
14/05:30pm 22.2 17.4 10.2 46 6.6 SSE 26 35 14 19 1011.1 1010.7 0.0
14/05:00pm 22.3 17.4 9.8 45 6.8 S 26 35 14 19 1011.1 1010.7 0.0
14/04:30pm 25.1 18.9 7.9 33 9.2 SSW 30 44 16 24 1011.1 1010.7 0.0
14/04:00pm 25.0 18.1 7.2 32 9.4 SW 33 46 18 25 1011.3 1010.9 0.0
14/03:30pm 25.1 18.9 4.4 26 10.4 WSW 26 39 14 21 1011.3 1010.9 0.0
14/03:12pm 25.0 18.5 4.6 26 10.3 SW 28 46 15 25 1011.4 1011.0 0.0
14/03:00pm 23.8 16.8 4.3 28 9.7 SW 30 46 16 25 1011.4 1011.0 0.0
14/02:30pm 23.9 17.4 4.5 28 9.7 SW 28 48 15 26 1011.5 1011.1 0.0
14/02:24pm 23.9 17.4 4.5 28 9.7 SW 28 48 15 26 1011.7 1011.3 0.0
14/02:00pm 24.9 18.3 4.0 26 10.4 SW 28 41 15 22 1011.5 1011.1 0.0
14/01:30pm 23.3 17.6 5.0 30 9.2 SSW 24 37 13 20 1011.6 1011.2 0.0
14/01:00pm 23.3 17.8 5.9 32 8.9 SW 24 37 13 20 1011.7 1011.3 0.0
14/12:33pm 23.9 18.9 6.3 32 9.1 W 22 50 12 27 1011.9 1011.5 0.0
14/12:30pm 24.1 19.1 6.3 31 9.2 W 22 33 12 18 1011.8 1011.4 0.0
14/12:00pm 21.3 16.0 6.6 38 7.5 SW 24 39 13 21 1012.1 1011.7 0.0
14/11:30am 22.0 17.8 7.4 39 7.6 SW 19 33 10 18 1012.2 1011.8 0.0
14/11:00am 21.4 17.0 7.3 40 7.3 SW 20 32 11 17 1012.3 1011.9 0.0
14/10:30am 20.4 16.7 7.9 44 6.5 SW 17 28 9 15 1012.5 1012.1 0.0
14/10:00am 18.8 15.4 9.1 53 5.1 SW 17 28 9 15 1012.7 1012.3 0.0
14/09:30am 18.1 13.5 9.8 58 4.4 WSW 24 32 13 17 1012.6 1012.2 0.0
14/09:00am 18.2 14.9 10.8 62 4.0 WSW 19 28 10 15 1012.4 1012.0 0.2
14/08:30am 16.7 13.7 10.7 67 3.2 W 17 24 9 13 1012.1 1011.7 0.2
14/08:00am 15.3 13.5 11.0 75 2.3 W 11 15 6 8 1012.0 1011.6 0.2
14/07:30am 13.7 12.0 11.1 84 1.4 WNW 11 13 6 7 1011.5 1011.1 0.2
14/07:00am 12.6 11.1 10.5 87 1.1 W 9 13 5 7 1011.1 1010.7 0.2
14/06:30am 13.2 11.0 10.7 85 1.3 W 13 15 7 8 1010.6 1010.2 0.2
14/06:00am 13.3 11.0 10.6 84 1.4 WSW 13 15 7 8 1010.4 1010.0 0.2
14/05:30am 13.7 11.6 11.1 84 1.4 W 13 17 7 9 1010.1 1009.7 0.2
14/05:00am 14.6 13.3 11.2 80 1.8 SW 9 13 5 7 1010.0 1009.6 0.2
14/04:30am 14.8 13.2 11.5 80 1.8 SW 11 15 6 8 1009.8 1009.4 0.2
14/04:00am 15.6 12.9 11.7 77 2.1 SW 17 20 9 11 1009.8 1009.4 0.2
14/03:30am 17.1 14.6 11.2 68 3.2 WSW 15 28 8 15 1009.6 1009.2 0.2
14/03:00am 17.4 15.2 12.2 71 2.9 WSW 15 19 8 10 1009.9 1009.5 0.2
14/02:30am 17.1 14.8 13.0 77 2.3 WSW 17 19 9 10 1010.1 1009.7 0.2
14/02:00am 16.9 14.3 13.7 81 1.8 SW 20 30 11 16 1010.3 1009.9 0.2
14/01:30am 16.9 13.7 15.2 90 1.0 SW 26 32 14 17 1010.5 1010.1 0.2
14/01:00am 18.2 15.7 15.1 82 1.8 WSW 22 32 12 17 1010.6 1010.2 0.2
14/12:30am 18.9 18.7 16.6 86 1.4 SW 13 17 7 9 1010.4 1010.0 0.2
14/12:00am 18.9 18.2 17.3 90 1.0 S 17 24 9 13 1010.5 1010.1 0.0
 
Date/Time
EDT
Tmp

°C
App
Tmp
°C
Dew
Point
°C
Rel
Hum
%
Delta-T

°C
Wind Press
QNH
hPa
Press
MSL
hPa
Rain
since
9 am
mm
Dir
 
Spd
km/h
Gust
km/h
Spd
kts
Gust
kts
13/11:30pm 19.8 18.6 16.1 79 2.2 S 17 26 9 14 1010.4 1010.0 0.0
13/11:08pm 19.8 18.1 16.3 80 2.1 S 20 28 11 15 1010.4 1010.0 0.0
13/11:00pm 20.0 18.2 16.0 78 2.4 S 20 26 11 14 1010.5 1010.1 0.0
13/10:30pm 19.9 17.8 15.2 74 2.8 S 20 28 11 15 1010.4 1010.0 0.0
13/10:00pm 19.9 18.2 14.6 71 3.1 S 17 24 9 13 1010.0 1009.6 0.0
13/09:30pm 20.0 18.2 14.5 70 3.2 S 17 22 9 12 1009.6 1009.2 0.0
13/09:00pm 20.2 18.8 14.6 70 3.3 S 15 19 8 10 1009.1 1008.8 0.0
13/08:30pm 20.7 18.5 14.4 67 3.7 S 19 26 10 14 1008.8 1008.5 0.0
13/08:00pm 21.4 19.6 14.4 64 4.1 S 17 26 9 14 1008.5 1008.1 0.0
13/07:30pm 22.5 19.9 13.8 58 5.1 S 20 28 11 15 1007.8 1007.4 0.0
13/07:00pm 23.4 19.9 13.3 53 5.9 S 24 33 13 18 1007.6 1007.2 0.0
13/06:30pm 23.1 19.0 13.7 55 5.5 S 28 37 15 20 1007.2 1006.8 0.0
13/06:00pm 24.1 20.3 14.6 55 5.7 S 28 35 15 19 1006.9 1006.5 0.0
13/05:30pm 24.6 21.7 15.0 55 5.8 S 24 33 13 18 1006.6 1006.2 0.0
13/05:00pm 25.6 22.5 15.6 54 6.1 S 26 33 14 18 1006.4 1006.0 0.0
13/04:30pm 26.4 23.3 15.6 51 6.6 S 26 32 14 17 1006.5 1006.1 0.0
13/04:00pm 28.4 22.4 12.2 36 9.5 S 35 44 19 24 1006.2 1005.8 0.0
13/03:44pm 33.3 26.4 8.8 22 13.9 W 35 48 19 26 1005.6 1005.2 0.0
13/03:42pm 32.5 26.0 9.1 23 13.3 WNW 33 48 18 26 1005.6 1005.2 0.0
13/03:30pm 36.3 28.0 -8.9 5 19.6 NW 28 46 15 25 1005.5 1005.1 0.0
13/03:00pm 32.6 29.2 9.3 23 13.3 SSE 17 26 9 14 1005.9 1005.5 0.0
13/02:30pm 31.2 27.8 11.4 29 11.6 SSW 20 30 11 16 1006.4 1006.0 0.0
13/02:00pm 32.3 29.5 8.7 23 13.3 SSE 13 20 7 11 1006.7 1006.3 0.0
13/01:30pm 32.5 30.2 10.4 25 12.8 SE 13 20 7 11 1007.1 1006.7 0.0
13/01:00pm 30.6 29.1 10.4 28 11.6 S 9 13 5 7 1007.8 1007.4 0.0
13/12:30pm 27.4 24.6 11.4 37 9.2 SSE 17 19 9 10 1008.3 1007.9 0.0
13/12:00pm 26.2 22.8 10.6 37 8.8 S 19 26 10 14 1008.6 1008.2 0.0
13/11:40am 26.9 23.2 11.4 38 8.9 SW 22 32 12 17 1008.5 1008.1 0.0
13/11:30am 32.2 27.4 2.6 15 15.1 WNW 17 26 9 14 1008.4 1008.0 0.0
13/11:00am 30.6 23.9 1.6 15 14.4 WNW 26 33 14 18 1008.8 1008.5 0.0
13/10:30am 31.8 27.8 5.0 18 14.2 N 15 26 8 14 1008.4 1008.0 0.0
13/10:00am 29.2 24.9 5.4 22 12.5 N 17 24 9 13 1009.1 1008.8 0.0
13/09:30am 28.5 25.2 6.3 24 11.8 N 13 19 7 10 1009.3 1008.9 0.0
13/09:00am 27.3 22.6 6.2 26 11.1 N 20 30 11 16 1009.5 1009.1 0.0
13/08:30am 26.7 21.7 6.4 27 10.7 N 22 30 12 16 1009.4 1009.0 0.0
13/08:00am 24.6 20.3 7.7 34 9.0 N 20 26 11 14 1008.9 1008.6 0.0
13/07:30am 22.8 17.4 7.8 38 7.9 N 26 33 14 18 1008.9 1008.6 0.0
13/07:00am 21.4 15.9 9.1 45 6.6 N 28 33 15 18 1008.6 1008.2 0.0
13/06:30am 21.6 16.1 9.1 44 6.7 N 28 33 15 18 1008.7 1008.3 0.0
13/06:00am 21.4 16.1 8.4 43 6.9 N 26 32 14 17 1008.4 1008.0 0.0
13/05:30am 21.6 15.8 7.9 41 7.2 N 28 32 15 17 1008.4 1008.0 0.0
13/05:00am 21.1 15.5 8.7 45 6.6 N 28 33 15 18 1008.3 1007.9 0.0
13/04:30am 20.3 15.0 10.0 51 5.6 N 28 32 15 17 1008.3 1007.9 0.0
13/04:00am 19.7 14.3 11.0 57 4.8 N 30 35 16 19 1008.4 1008.0 0.0
13/03:30am 19.9 14.6 11.4 58 4.7 N 30 35 16 19 1008.6 1008.2 0.0
13/03:00am 18.7 15.4 12.9 69 3.3 N 22 28 12 15 1009.0 1008.7 0.0
13/02:30am 16.4 15.5 13.6 83 1.6 N 11 15 6 8 1009.5 1009.1 0.0
13/02:00am 17.1 15.5 13.8 81 1.9 N 15 17 8 9 1009.9 1009.5 0.0
13/01:30am 17.2 16.0 13.9 81 1.9 N 13 17 7 9 1010.3 1009.9 0.0
13/01:00am 16.7 14.6 13.7 82 1.7 N 17 17 9 9 1010.5 1010.1 0.0
13/12:30am 17.7 17.1 14.6 82 1.8 N 11 13 6 7 1011.0 1010.6 0.0
13/12:00am 18.3 18.6 14.9 80 2.0 NNW 7 9 4 5 1011.4 1011.0 0.0
 
Date/Time
EDT
Tmp

°C
App
Tmp
°C
Dew
Point
°C
Rel
Hum
%
Delta-T

°C
Wind Press
QNH
hPa
Press
MSL
hPa
Rain
since
9 am
mm
Dir
 
Spd
km/h
Gust
km/h
Spd
kts
Gust
kts
12/11:30pm 18.1 18.2 14.5 79 2.1 NNW 7 9 4 5 1011.7 1011.3 0.0
12/11:00pm 18.1 17.5 14.5 79 2.1 WNW 11 13 6 7 1012.2 1011.8 0.0
12/10:30pm 19.2 19.4 14.8 75 2.6 WNW 7 9 4 5 1012.3 1011.9 0.0
12/10:00pm 19.2 19.0 14.8 75 2.6 WSW 9 9 5 5 1012.5 1012.1 0.0
12/09:30pm 19.8 19.8 15.1 74 2.8 WSW 9 11 5 6 1012.4 1012.0 0.0
12/09:00pm 20.6 20.6 15.2 71 3.2 WSW 9 11 5 6 1012.3 1011.9 0.0
12/08:30pm 21.5 20.7 15.1 67 3.8 SSW 13 15 7 8 1012.2 1011.8 0.0
12/08:00pm 22.2 20.6 15.0 63 4.3 SSW 17 22 9 12 1012.1 1011.7 0.0
12/07:30pm 22.6 20.5 14.7 61 4.7 S 19 24 10 13 1011.9 1011.5 0.0
12/07:00pm 23.6 21.5 14.7 57 5.3 SSW 19 26 10 14 1011.8 1011.4 0.0
12/06:30pm 24.5 22.3 14.8 54 5.8 S 20 28 11 15 1011.7 1011.3 0.0
12/06:00pm 25.2 22.7 14.1 50 6.6 S 20 28 11 15 1011.7 1011.3 0.0
12/05:30pm 26.7 24.4 14.0 45 7.6 SSE 19 28 10 15 1011.6 1011.2 0.0
12/05:00pm 27.9 25.5 13.7 41 8.5 SSE 19 30 10 16 1011.8 1011.4 0.0
12/04:30pm 28.0 25.9 13.6 41 8.6 S 17 24 9 13 1012.1 1011.7 0.0
12/04:00pm 26.8 24.5 13.0 42 8.1 SSE 17 26 9 14 1012.5 1012.1 0.0
12/03:30pm 27.2 25.6 12.7 40 8.5 SE 13 26 7 14 1012.9 1012.5 0.0
12/03:00pm 27.1 25.4 12.6 40 8.5 S 13 20 7 11 1013.2 1012.8 0.0
12/02:30pm 26.4 24.1 11.8 40 8.4 SSE 15 24 8 13 1013.8 1013.4 0.0
12/02:00pm 26.0 23.9 12.4 42 7.9 SE 15 26 8 14 1014.1 1013.7 0.0
12/01:30pm 26.0 24.2 11.0 39 8.5 E 11 19 6 10 1014.4 1014.0 0.0
12/01:00pm 24.4 23.8 11.8 45 7.2 SW 6 11 3 6 1015.0 1014.6 0.0
12/12:30pm 24.5 23.4 12.1 46 7.1 S 9 15 5 8 1015.3 1014.9 0.0
12/12:00pm 22.2 20.9 12.4 53 5.6 SSE 11 19 6 10 1015.8 1015.4 0.0
12/11:30am 21.7 20.6 13.2 58 4.9 SE 11 19 6 10 1016.0 1015.6 0.0
12/11:00am 20.8 20.0 12.9 60 4.5 SE 9 17 5 9 1016.2 1015.9 0.0
12/10:30am 19.6 18.9 13.1 66 3.7 SSE 9 19 5 10 1016.4 1016.1 0.0
12/10:00am 19.0 18.7 13.4 70 3.2 ESE 7 13 4 7 1016.7 1016.4 0.0
12/09:30am 17.8 16.7 13.0 73 2.7 SSE 11 19 6 10 1016.9 1016.6 0.0
12/09:00am 17.7 16.1 12.9 73 2.7 E 13 19 7 10 1016.8 1016.5 0.0
12/08:30am 17.5 15.9 12.9 74 2.6 SE 13 17 7 9 1017.0 1016.7 0.0

Latest Capital City Observations: Canberra | Sydney | Melbourne | Brisbane | Adelaide | Perth | Hobart | Darwin

Other Formats:

Comma delimited format used in spreadsheet applications
http://www.bom.gov.au/fwo/IDV60901/IDV60901.94866.axf

JavaScript Object Notation format (JSON) in row-major order
http://www.bom.gov.au/fwo/IDV60901/IDV60901.94866.json